.
WxDataArchive / Data Records for 2008-11-02
2008-11-01 November 2008 2008-11-03

Data Records for Sunday, 02 November 2008

Time	Temp	Chill	HIndex	Humid	Dewpt	 Wind 	HiWind	WindDir	Rain 	Barom 
-----	----	-----	------	-----	-----	------	------	-------	-----	----- 
00:00	49.6	49.6	49.6	77	42.7	3	7	90	0.00	30.313 
00:05	49.5	49.5	49.5	78	42.9	2	5	90	0.00	30.311 
00:10	49.4	49.4	49.4	78	42.8	3	7	68	0.00	30.311 
00:15	49.2	49.2	49.2	79	43.0	2	5	90	0.00	30.312 
00:20	49.1	49.1	49.1	80	43.2	2	5	112	0.00	30.314 
00:25	48.9	48.9	48.9	81	43.3	3	9	90	0.00	30.314 
00:30	48.6	47.3	48.6	81	43.0	4	9	90	0.00	30.313 
00:35	48.5	48.5	48.5	82	43.3	2	5	112	0.00	30.313 
00:40	48.3	48.3	48.3	82	43.1	2	6	90	0.00	30.313 
00:45	48.2	48.2	48.2	83	43.3	2	9	90	0.00	30.313 
00:50	48.0	48.0	48.0	82	42.8	3	9	90	0.00	30.314 
00:55	47.7	47.7	47.7	81	42.2	3	9	90	0.00	30.317 
01:00	47.6	47.6	47.6	81	42.1	1	6	135	0.00	30.320 
01:05	47.4	47.4	47.4	80	41.5	1	5	135	0.00	30.322 
01:10	47.3	47.3	47.3	78	40.8	2	5	90	0.00	30.323 
01:15	47.0	47.0	47.0	76	39.8	3	6	90	0.00	30.321 
01:20	46.7	46.7	46.7	75	39.2	3	7	112	0.00	30.318 
01:25	46.5	44.8	46.5	74	38.7	4	7	90	0.00	30.317 
01:30	46.4	46.4	46.4	75	38.9	3	10	90	0.00	30.319 
01:35	46.2	46.2	46.2	75	38.7	3	6	90	0.00	30.319 
01:40	46.2	46.2	46.2	75	38.7	2	5	112	0.00	30.319 
01:45	46.1	46.1	46.1	76	39.0	2	5	68	0.00	30.318 
01:50	46.0	44.2	46.0	73	37.8	4	10	112	0.00	30.317 
01:55	45.8	44.0	45.8	72	37.3	4	10	90	0.00	30.317 
02:00	45.8	45.8	45.8	72	37.3	3	7	90	0.00	30.317 
02:05	45.8	45.8	45.8	72	37.3	2	5	90	0.00	30.316 
02:10	45.7	45.7	45.7	72	37.2	2	8	90	0.00	30.318 
02:15	45.7	45.7	45.7	72	37.2	2	5	90	0.00	30.318 
02:20	45.7	45.7	45.7	73	37.5	3	6	90	0.00	30.316 
02:25	45.7	45.7	45.7	73	37.5	1	4	90	0.00	30.317 
02:30	45.7	45.7	45.7	74	37.9	1	3	90	0.00	30.315 
02:35	45.5	45.5	45.5	73	37.4	2	7	90	0.00	30.316 
02:40	45.5	45.5	45.5	73	37.4	2	5	90	0.00	30.317 
02:45	45.4	45.4	45.4	73	37.3	2	6	90	0.00	30.317 
02:50	45.4	45.4	45.4	73	37.3	2	4	90	0.00	30.315 
02:55	45.4	45.4	45.4	73	37.3	2	4	90	0.00	30.313 
03:00	45.4	45.4	45.4	73	37.3	2	4	90	0.00	30.314 
03:05	45.2	45.2	45.2	73	37.1	2	5	90	0.00	30.316 
03:10	45.2	45.2	45.2	73	37.1	2	5	90	0.00	30.316 
03:15	45.1	45.1	45.1	73	37.0	1	3	112	0.00	30.310 
03:20	45.1	45.1	45.1	73	37.0	2	8	112	0.00	30.308 
03:25	44.9	44.9	44.9	72	36.4	2	7	90	0.00	30.310 
03:30	44.8	44.8	44.8	72	36.3	3	10	90	0.00	30.308 
03:35	44.8	44.8	44.8	73	36.7	2	7	112	0.00	30.307 
03:40	44.6	44.6	44.6	73	36.5	2	5	90	0.00	30.305 
03:45	44.6	44.6	44.6	73	36.5	3	8	112	0.00	30.308 
03:50	44.5	44.5	44.5	74	36.7	2	4	90	0.00	30.305 
03:55	44.3	44.3	44.3	74	36.5	2	6	112	0.00	30.305 
04:00	44.3	44.3	44.3	75	36.9	2	5	90	0.00	30.307 
04:05	44.3	44.3	44.3	75	36.9	2	6	90	0.00	30.308 
04:10	44.3	44.3	44.3	75	36.9	2	5	90	0.00	30.308 
04:15	44.3	44.3	44.3	76	37.2	1	4	90	0.00	30.306 
04:20	44.2	44.2	44.2	76	37.1	1	5	112	0.00	30.307 
04:25	44.1	44.1	44.1	76	37.0	1	6	112	0.00	30.309 
04:30	43.9	43.9	43.9	77	37.2	1	4	112	0.00	30.316 
04:35	43.9	43.9	43.9	77	37.2	1	4	112	0.00	30.315 
04:40	43.8	43.8	43.8	77	37.1	2	5	90	0.00	30.311 
04:45	43.8	43.8	43.8	77	37.1	2	5	112	0.00	30.308 
04:50	43.6	43.6	43.6	78	37.2	1	5	112	0.00	30.310 
04:55	43.6	43.6	43.6	78	37.2	2	6	90	0.00	30.313 
05:00	43.5	43.5	43.5	79	37.4	1	3	90	0.00	30.314 
05:05	43.5	43.5	43.5	79	37.4	2	4	112	0.00	30.316 
05:10	43.5	43.5	43.5	79	37.4	2	7	90	0.00	30.310 
05:15	43.5	43.5	43.5	80	37.7	1	4	90	0.00	30.310 
05:20	43.3	43.3	43.3	80	37.6	1	4	90	0.00	30.310 
05:25	43.3	43.3	43.3	80	37.6	2	4	90	0.00	30.307 
05:30	43.2	43.2	43.2	80	37.5	1	3	112	0.00	30.315 
05:35	43.2	43.2	43.2	80	37.5	2	4	112	0.00	30.309 
05:40	43.2	43.2	43.2	81	37.8	1	5	135	0.00	30.310 
05:45	43.2	43.2	43.2	81	37.8	2	5	90	0.00	30.307 
05:50	43.2	43.2	43.2	81	37.8	2	4	90	0.00	30.305 
05:55	43.2	43.2	43.2	81	37.8	1	4	90	0.00	30.306 
06:00	43.2	43.2	43.2	81	37.8	1	4	90	0.00	30.305 
06:05	43.2	43.2	43.2	81	37.8	1	5	68	0.00	30.308 
06:10	43.3	43.3	43.3	81	37.9	2	6	90	0.00	30.307 
06:15	43.3	43.3	43.3	82	38.2	1	5	90	0.00	30.309 
06:20	43.3	43.3	43.3	82	38.2	1	4	90	0.00	30.308 
06:25	43.5	43.5	43.5	82	38.4	1	3	112	0.00	30.307 
06:30	43.5	43.5	43.5	82	38.4	2	5	112	0.00	30.303 
06:35	43.6	43.6	43.6	82	38.5	3	9	90	0.00	30.297 
06:40	43.6	43.6	43.6	82	38.5	1	4	90	0.00	30.296 
06:45	43.6	43.6	43.6	82	38.5	2	6	90	0.00	30.300 
06:50	43.6	43.6	43.6	82	38.5	3	5	90	0.00	30.302 
06:55	43.6	43.6	43.6	82	38.5	1	4	68	0.00	30.305 
07:00	43.6	43.6	43.6	82	38.5	2	6	90	0.00	30.307 
07:05	43.6	43.6	43.6	82	38.5	2	5	90	0.00	30.307 
07:10	43.5	43.5	43.5	82	38.4	2	6	112	0.00	30.308 
07:15	43.6	43.6	43.6	82	38.5	1	3	90	0.00	30.308 
07:20	43.6	43.6	43.6	82	38.5	2	5	90	0.00	30.308 
07:25	43.5	43.5	43.5	82	38.4	3	7	90	0.00	30.309 
07:30	43.5	43.5	43.5	82	38.4	2	6	90	0.00	30.310 
07:35	43.5	43.5	43.5	82	38.4	2	7	90	0.00	30.310 
07:40	43.5	43.5	43.5	82	38.4	2	6	90	0.00	30.311 
07:45	43.5	43.5	43.5	82	38.4	2	5	90	0.00	30.310 
07:50	43.3	43.3	43.3	82	38.2	2	5	90	0.00	30.311 
07:55	43.3	43.3	43.3	82	38.2	2	5	90	0.00	30.314 
08:00	43.5	43.5	43.5	82	38.4	1	3	90	0.00	30.314 
08:05	43.5	43.5	43.5	82	38.4	2	7	90	0.00	30.317 
08:10	43.6	43.6	43.6	82	38.5	3	6	112	0.00	30.317 
08:15	43.6	43.6	43.6	83	38.8	2	4	90	0.00	30.316 
08:20	43.8	43.8	43.8	84	39.3	2	6	90	0.00	30.313 
08:25	43.8	43.8	43.8	84	39.3	2	6	90	0.00	30.313 
08:30	43.8	43.8	43.8	84	39.3	1	5	90	0.00	30.315 
08:35	43.9	43.9	43.9	84	39.4	2	5	90	0.00	30.314 
08:40	44.1	44.1	44.1	84	39.6	2	5	90	0.00	30.312 
08:45	44.3	44.3	44.3	84	39.8	2	5	90	0.00	30.310 
08:50	44.5	44.5	44.5	84	40.0	2	6	90	0.00	30.307 
08:55	44.8	44.8	44.8	83	40.0	2	6	90	0.00	30.308 
09:00	45.2	45.2	45.2	82	40.0	2	6	112	0.00	30.308 
09:05	45.5	45.5	45.5	82	40.3	2	6	90	0.00	30.311 
09:10	45.7	45.7	45.7	81	40.2	2	6	90	0.00	30.309 
09:15	45.8	45.8	45.8	81	40.3	3	9	90	0.00	30.309 
09:20	46.0	46.0	46.0	81	40.5	2	6	90	0.00	30.308 
09:25	46.0	46.0	46.0	81	40.5	2	5	90	0.00	30.309 
09:30	46.1	46.1	46.1	80	40.3	3	7	90	0.00	30.308 
09:35	46.2	44.5	46.2	80	40.4	4	8	90	0.00	30.308 
09:40	46.5	46.5	46.5	80	40.7	3	8	90	0.00	30.308 
09:45	46.7	46.7	46.7	79	40.5	3	6	90	0.00	30.307 
09:50	46.8	46.8	46.8	79	40.6	2	5	90	0.00	30.308 
09:55	47.1	47.1	47.1	79	40.9	2	4	135	0.00	30.308 
10:00	47.3	47.3	47.3	78	40.8	2	6	90	0.00	30.306 
10:05	47.4	47.4	47.4	77	40.6	3	5	90	0.00	30.305 
10:10	47.6	47.6	47.6	77	40.8	3	7	90	0.00	30.305 
10:15	47.6	47.6	47.6	77	40.8	3	7	90	0.00	30.304 
10:20	47.9	47.9	47.9	77	41.0	2	10	90	0.00	30.303 
10:25	48.0	48.0	48.0	76	40.8	3	7	90	0.00	30.302 
10:30	48.3	48.3	48.3	76	41.1	1	5	112	0.00	30.300 
10:35	48.6	48.6	48.6	75	41.0	1	5	112	0.00	30.302 
10:40	48.6	48.6	48.6	75	41.0	3	6	90	0.00	30.303 
10:45	48.6	48.6	48.6	75	41.0	1	4	112	0.00	30.303 
10:50	48.8	48.8	48.8	76	41.6	1	5	90	0.00	30.303 
10:55	48.9	48.9	48.9	75	41.3	1	4	112	0.00	30.298 
11:00	49.2	49.2	49.2	75	41.6	2	4	112	0.00	30.301 
11:05	49.5	49.5	49.5	74	41.6	1	5	90	0.00	30.300 
11:10	49.6	49.6	49.6	73	41.3	2	6	112	0.00	30.302 
11:15	49.6	49.6	49.6	74	41.7	3	5	90	0.00	30.301 
11:20	49.5	49.5	49.5	74	41.6	2	5	90	0.00	30.297 
11:25	49.4	49.4	49.4	75	41.8	2	5	90	0.00	30.292 
11:30	49.6	49.6	49.6	75	42.0	2	5	90	0.00	30.294 
11:35	49.8	49.8	49.8	74	41.9	2	5	90	0.00	30.293 
11:40	49.9	49.9	49.9	75	42.3	2	5	90	0.00	30.290 
11:45	49.9	49.9	49.9	75	42.3	2	5	90	0.00	30.289 
11:50	49.9	49.9	49.9	75	42.3	2	6	112	0.00	30.287 
11:55	50.1	50.1	50.1	75	42.5	3	7	90	0.00	30.286 
12:00	50.4	50.4	50.4	75	42.8	2	4	112	0.00	30.282 
12:05	50.7	50.7	50.7	74	42.7	1	3	90	0.00	30.284 
12:10	50.8	50.8	50.8	74	42.8	2	6	90	0.00	30.279 
12:15	51.0	51.0	51.0	74	43.0	2	4	90	0.00	30.275 
12:20	51.3	51.3	51.3	75	43.6	2	5	90	0.00	30.274 
12:25	51.9	51.9	51.9	74	43.9	2	5	90	0.00	30.269 
12:30	52.3	52.3	52.3	73	43.9	2	5	90	0.00	30.263 
12:35	52.8	52.8	52.8	71	43.7	3	9	112	0.00	30.259 
12:40	53.2	53.2	53.2	70	43.7	2	6	90	0.00	30.257 
12:45	53.5	53.5	53.5	70	44.0	2	7	90	0.00	30.256 
12:50	53.8	53.8	53.8	69	43.9	2	7	90	0.00	30.253 
12:55	54.2	54.2	54.2	70	44.6	3	5	90	0.00	30.251 
13:00	54.7	54.7	54.7	69	44.7	2	4	90	0.00	30.249 
13:05	55.0	55.0	55.0	68	44.6	2	6	112	0.00	30.254 
13:10	55.1	55.1	55.1	67	44.3	3	6	90	0.00	30.249 
13:15	55.3	55.3	55.3	67	44.5	2	6	90	0.00	30.245 
13:20	55.6	55.6	55.6	67	44.8	1	3	112	0.00	30.242 
13:25	56.0	56.0	56.0	67	45.2	1	4	90	0.00	30.239 
13:30	56.5	56.5	56.5	65	44.9	1	5	90	0.00	30.238 
13:35	56.7	56.7	56.7	65	45.1	1	3	135	0.00	30.233 
13:40	57.0	57.0	57.0	65	45.4	1	5	90	0.00	30.234 
13:45	57.3	57.3	57.3	64	45.2	1	3	90	0.00	30.230 
13:50	57.6	57.6	57.6	65	45.9	1	5	45	0.00	30.225 
13:55	57.8	57.8	57.8	65	46.1	2	4	90	0.00	30.222 
14:00	57.8	57.8	57.8	64	45.7	2	5	135	0.00	30.220 
14:05	57.6	57.6	57.6	64	45.5	1	4	90	0.00	30.221 
14:10	57.6	57.6	57.6	64	45.5	1	4	90	0.00	30.217 
14:15	57.8	57.8	57.8	64	45.7	0	2	112	0.00	30.213 
14:20	58.1	58.1	58.1	65	46.4	1	4	112	0.00	30.210 
14:25	58.3	58.3	58.3	64	46.2	2	5	90	0.00	30.209 
14:30	58.6	58.6	58.6	63	46.0	2	5	90	0.00	30.206 
14:35	58.7	58.7	58.7	63	46.1	2	5	90	0.00	30.205 
14:40	58.9	58.9	58.9	63	46.3	1	4	112	0.00	30.206 
14:45	59.0	59.0	59.0	63	46.4	1	4	112	0.00	30.202 
14:50	59.3	59.3	59.3	63	46.7	1	4	112	0.00	30.198 
14:55	59.6	59.6	59.6	63	47.0	1	5	112	0.00	30.195 
15:00	59.9	59.9	59.9	62	46.8	2	5	90	0.00	30.191 
15:05	60.1	60.1	60.1	61	46.6	1	5	68	0.00	30.191 
15:10	60.4	60.4	60.4	60	46.4	1	5	90	0.00	30.192 
15:15	60.4	60.4	60.4	61	46.9	1	4	90	0.00	30.193 
15:20	60.4	60.4	60.4	61	46.9	1	3	90	0.00	30.191 
15:25	60.5	60.5	60.5	61	47.0	1	3	90	0.00	30.191 
15:30	60.5	60.5	60.5	61	47.0	1	4	90	0.00	30.190 
15:35	60.7	60.7	60.7	60	46.7	1	3	90	0.00	30.190 
15:40	60.7	60.7	60.7	61	47.2	1	3	90	0.00	30.189 
15:45	60.7	60.7	60.7	61	47.2	1	4	90	0.00	30.187 
15:50	60.7	60.7	60.7	61	47.2	2	5	90	0.00	30.185 
15:55	60.7	60.7	60.7	61	47.2	1	3	112	0.00	30.183 
16:00	60.7	60.7	60.7	62	47.6	1	4	90	0.00	30.181 
16:05	60.7	60.7	60.7	62	47.6	0	2	90	0.00	30.179 
16:10	60.9	60.9	60.9	62	47.8	0	2	90	0.00	30.180 
16:15	61.0	61.0	61.0	62	47.9	0	2	90	0.00	30.177 
16:20	61.3	61.3	61.3	62	48.2	0	1	90	0.00	30.176 
16:25	61.5	61.5	61.5	61	47.9	0	3	68	0.00	30.173 
16:30	61.8	61.8	61.8	60	47.8	1	4	135	0.00	30.173 
16:35	61.8	61.8	61.8	60	47.8	0	2	90	0.00	30.173 
16:40	61.6	61.6	61.6	61	48.0	0	1	90	0.00	30.173 
16:45	61.3	61.3	61.3	61	47.7	1	3	112	0.00	30.174 
16:50	61.3	61.3	61.3	61	47.7	0	2	112	0.00	30.175 
16:55	61.3	61.3	61.3	62	48.2	1	4	112	0.00	30.175 
17:00	61.2	61.2	61.2	62	48.1	1	2	112	0.00	30.174 
17:05	61.0	61.0	61.0	62	47.9	0	3	112	0.00	30.175 
17:10	60.9	60.9	60.9	63	48.2	0	1	112	0.00	30.174 
17:15	60.5	60.5	60.5	63	47.8	0	1	112	0.00	30.174 
17:20	60.2	60.2	60.2	64	48.0	0	1	112	0.00	30.176 
17:25	59.9	59.9	59.9	65	48.1	0	1	112	0.00	30.176 
17:30	59.6	59.6	59.6	65	47.8	0	1	112	0.00	30.177 
17:35	59.5	59.5	59.5	65	47.7	0	3	112	0.00	30.177 
17:40	59.3	59.3	59.3	66	47.9	0	1	112	0.00	30.176 
17:45	59.0	59.0	59.0	66	47.7	0	1	112	0.00	30.176 
17:50	58.7	58.7	58.7	67	47.8	0	0	---	0.00	30.177 
17:55	58.3	58.3	58.3	68	47.8	0	0	---	0.00	30.178 
18:00	57.8	57.8	57.8	69	47.7	0	0	---	0.00	30.178 
18:05	57.3	57.3	57.3	70	47.6	0	1	112	0.00	30.178 
18:10	57.0	57.0	57.0	70	47.3	0	1	112	0.00	30.181 
18:15	57.0	57.0	57.0	70	47.3	0	2	112	0.00	30.182 
18:20	57.0	57.0	57.0	71	47.7	0	1	112	0.00	30.183 
18:25	57.0	57.0	57.0	71	47.7	0	1	112	0.00	30.183 
18:30	56.9	56.9	56.9	71	47.6	0	1	112	0.00	30.182 
18:35	56.9	56.9	56.9	71	47.6	0	1	112	0.00	30.185 
18:40	56.9	56.9	56.9	71	47.6	0	0	---	0.00	30.186 
18:45	56.7	56.7	56.7	72	47.8	0	1	112	0.00	30.187 
18:50	56.7	56.7	56.7	72	47.8	0	0	---	0.00	30.187 
18:55	56.7	56.7	56.7	72	47.8	0	1	112	0.00	30.187 
19:00	56.6	56.6	56.6	72	47.7	0	1	112	0.00	30.187 
19:05	56.6	56.6	56.6	72	47.7	0	1	112	0.00	30.188 
19:10	56.6	56.6	56.6	72	47.7	0	1	112	0.00	30.188 
19:15	56.6	56.6	56.6	72	47.7	0	1	112	0.00	30.187 
19:20	56.6	56.6	56.6	72	47.7	0	1	112	0.00	30.185 
19:25	56.6	56.6	56.6	72	47.7	0	2	112	0.00	30.186 
19:30	56.5	56.5	56.5	73	47.9	0	0	---	0.00	30.186 
19:35	56.3	56.3	56.3	73	47.8	0	1	112	0.00	30.184 
19:40	56.3	56.3	56.3	73	47.8	0	1	112	0.00	30.184 
19:45	56.2	56.2	56.2	73	47.7	0	1	112	0.00	30.181 
19:50	56.2	56.2	56.2	73	47.7	0	1	112	0.00	30.180 
19:55	56.0	56.0	56.0	73	47.5	0	1	112	0.00	30.179 
20:00	56.0	56.0	56.0	74	47.8	0	0	---	0.00	30.179 
20:05	55.9	55.9	55.9	74	47.7	0	0	---	0.00	30.180 
20:10	55.7	55.7	55.7	74	47.5	0	1	112	0.00	30.181 
20:15	55.7	55.7	55.7	75	47.9	0	0	---	0.00	30.180 
20:20	55.6	55.6	55.6	76	48.2	0	0	---	0.00	30.180 
20:25	55.4	55.4	55.4	76	48.0	0	0	---	0.00	30.180 
20:30	55.3	55.3	55.3	77	48.2	0	0	---	0.00	30.180 
20:35	55.1	55.1	55.1	77	48.0	0	0	---	0.00	30.181 
20:40	55.0	55.0	55.0	77	47.9	0	0	---	0.00	30.180 
20:45	54.8	54.8	54.8	78	48.1	0	0	---	0.00	30.182 
20:50	54.7	54.7	54.7	78	48.0	0	0	---	0.00	30.181 
20:55	54.5	54.5	54.5	79	48.1	0	0	---	0.00	30.180 
21:00	54.4	54.4	54.4	79	48.0	0	0	---	0.00	30.182 
21:05	54.4	54.4	54.4	80	48.4	0	0	---	0.00	30.180 
21:10	54.2	54.2	54.2	80	48.2	0	0	---	0.00	30.180 
21:15	54.1	54.1	54.1	80	48.1	0	0	---	0.00	30.182 
21:20	53.9	53.9	53.9	80	47.9	0	0	---	0.00	30.181 
21:25	53.8	53.8	53.8	81	48.1	0	0	---	0.00	30.179 
21:30	53.6	53.6	53.6	81	47.9	0	0	---	0.00	30.179 
21:35	53.5	53.5	53.5	81	47.8	0	0	---	0.00	30.179 
21:40	53.2	53.2	53.2	81	47.5	0	0	---	0.00	30.178 
21:45	53.1	53.1	53.1	82	47.8	0	0	---	0.00	30.177 
21:50	52.9	52.9	52.9	82	47.6	0	0	---	0.00	30.177 
21:55	52.8	52.8	52.8	83	47.8	0	0	---	0.00	30.176 
22:00	52.6	52.6	52.6	83	47.6	0	0	---	0.00	30.177 
22:05	52.5	52.5	52.5	83	47.5	0	0	---	0.00	30.175 
22:10	52.3	52.3	52.3	84	47.6	0	0	---	0.00	30.175 
22:15	52.2	52.2	52.2	84	47.5	0	0	---	0.00	30.175 
22:20	52.2	52.2	52.2	85	47.8	0	0	---	0.00	30.174 
22:25	52.0	52.0	52.0	85	47.6	0	0	---	0.00	30.172 
22:30	51.9	51.9	51.9	85	47.5	0	0	---	0.00	30.171 
22:35	51.9	51.9	51.9	86	47.8	0	0	---	0.00	30.170 
22:40	51.7	51.7	51.7	86	47.6	0	0	---	0.00	30.167 
22:45	51.7	51.7	51.7	87	48.0	0	0	---	0.00	30.167 
22:50	52.0	52.0	52.0	87	48.3	0	0	---	0.00	30.167 
22:55	52.0	52.0	52.0	87	48.3	0	0	---	0.00	30.169 

CoCoRaHS
IN-AL-39
A2 Web Hosting
Creative Commons License
GoDaddy
Look for:

loaded 2017-12-11 06:51:54 • last modified 2010-11-18 10:43:29
Privacy PolicyDisclaimer
• wx.awcolley.com is powered by PmWiki v.2002016 •
• all content (unless otherwise noted) © 2017 A W Colley